Flight Track Log - Related Links

Times and Time Zones

All times are in EDT time to prevent confusion due to time zone crossing. See the UCA4775 flight status page for this flight to view local times or setup timezone preferences in your user account.

Time Position Orientation Groundspeed Altitude Reporting Facility
EDT Latitude Longitude Course Direction KTS MPH feet Rate Location/Type
Sun 08:39:48 PM 41.9458 -72.7025 160° South 147 169 1,100  Level Boston Center
Sun 08:40:30 PM 41.9333 -72.7247 233° Southwest 122 140 2,400 1,860 Climbing Boston Center
Sun 08:41:28 PM 41.8956 -72.7469 204° Southwest 148 170 4,200 1,714 Climbing Boston Center
Sun 08:42:29 PM 41.8519 -72.7689 201° Southwest 170 196 5,800 885 Climbing Boston Center
Sun 08:43:30 PM 41.7956 -72.7992 202° Southwest 248 285 6,000 98 Climbing Boston Center
Sun 08:44:32 PM 41.7536 -72.8686 231° Southwest 245 282 6,000  Level Boston Center
Sun 08:45:00 PM 41.6671 -72.5502 160° South  Level FlightAware Approximate
Sun 08:45:34 PM 41.7117 -72.9433 233° Southwest 250 288 6,000  Level Boston Center
Sun 08:46:38 PM 41.6592 -73.0153 226° Southwest 244 281 6,000  Level Boston Center
Sun 08:48:17 PM 41.5833 -73.1167 225° Southwest 239 275 6,000  Level New York TRACON
Sun 08:49:17 PM 41.5500 -73.1833 236° Southwest 243 280 6,000  Level New York TRACON
Sun 08:50:17 PM 41.5000 -73.2500 225° Southwest 240 276 6,000  Level New York TRACON
Sun 08:51:23 PM 41.4500 -73.3333 231° Southwest 242 278 6,000  Level New York TRACON
Sun 08:52:23 PM 41.4000 -73.4000 225° Southwest 231 266 6,000  Level New York TRACON
Sun 08:53:23 PM 41.3667 -73.4667 236° Southwest 230 265 6,000  Level New York TRACON
Sun 08:54:23 PM 41.3167 -73.5167 217° Southwest 232 267 6,000  Level New York TRACON
Sun 08:55:23 PM 41.2833 -73.5833 236° Southwest 229 264 6,000 -150 Level New York TRACON
Sun 08:56:23 PM 41.2667 -73.6667 255° West 229 264 5,700 -500 Descending New York TRACON
Sun 08:57:23 PM 41.2667 -73.7500 270° West 243 280 5,000 -350 Descending New York TRACON
Sun 08:58:23 PM 41.2500 -73.8500 258° West 232 267 5,000  Level New York TRACON
Sun 08:59:23 PM 41.2500 -73.9333 270° West 228 262 5,000  Level New York TRACON
Sun 09:00:23 PM 41.2333 -74.0167 255° West 229 264 5,000  Level New York TRACON
Sun 09:01:17 PM 41.2333 -74.0833 270° West 228 262 5,000  Level New York TRACON
Sun 09:02:17 PM 41.2000 -74.1667 242° Southwest 229 264 5,000  Level New York TRACON
Sun 09:03:23 PM 41.1500 -74.2167 217° Southwest 241 277 5,000  Level New York TRACON
Sun 09:04:17 PM 41.1000 -74.2333 194° South 241 277 5,000  Level New York TRACON
Sun 09:05:17 PM 41.0333 -74.2500 191° South 236 272 5,000  Level New York TRACON
Sun 09:06:23 PM 40.9667 -74.2167 159° South 246 283 5,000 -381 Level New York TRACON
Sun 09:07:23 PM 40.9500 -74.1500 108° East 198 228 4,200 -895 Descending New York TRACON
Sun 09:08:17 PM 40.9333 -74.0833 108° East 204 235 3,300 -600 Descending New York TRACON
Sun 09:09:23 PM 40.8833 -74.0500 153° Southeast 178 205 3,000 -190 Descending New York TRACON
Sun 09:10:23 PM 40.8333 -74.0667 194° South 166 191 2,900 -450 Descending New York TRACON
Sun 09:11:23 PM 40.8000 -74.1000 217° Southwest 162 186 2,100 -800 Descending New York TRACON
Sun 09:12:23 PM 40.7667 -74.1167 201° Southwest 147 169 1,300 -750 Descending New York TRACON
Sun 09:13:23 PM 40.7333 -74.1500 217° Southwest 119 137 600 -700 Descending New York TRACON
Sun 09:15:00 PM 40.6925 -74.1687 199° South  Level Estimated
Sun 09:22:00 PM 40.6925 -74.1687 199° South  Level Estimated
Sun 09:23:00 PM 40.6925 -74.1687 199° South  Level Estimated

Login

Don't have an account? Register now (free) for customized features, flight alerts, and more!